createdAt,value
2022-09-24T00:01:17.550Z,8.70
2022-09-24T00:03:50.540Z,7.70
2022-09-24T00:06:20.639Z,7.85
2022-09-24T00:08:49.928Z,8.30
2022-09-24T00:11:19.859Z,8.82
2022-09-24T00:13:47.465Z,8.80
2022-09-24T00:16:16.350Z,8.43
2022-09-24T00:18:43.105Z,8.75
2022-09-24T00:21:24.940Z,8.82
2022-09-24T00:23:53.784Z,8.98
2022-09-24T00:26:40.129Z,8.20
2022-09-24T00:29:08.937Z,8.10
2022-09-24T00:31:36.271Z,8.30
2022-09-24T00:34:03.562Z,8.40
2022-09-24T00:36:30.499Z,7.57
2022-09-24T00:38:58.923Z,9.50
2022-09-24T00:41:28.636Z,8.85
2022-09-24T00:43:55.895Z,8.88
2022-09-24T00:46:28.228Z,8.38
2022-09-24T00:49:00.298Z,9.70
2022-09-24T00:51:30.415Z,9.05
2022-09-24T00:54:01.415Z,9.18
2022-09-24T00:56:32.594Z,10.60
2022-09-24T00:59:02.413Z,8.65
2022-09-24T01:01:32.502Z,9.77
2022-09-24T01:04:00.522Z,9.55
2022-09-24T01:06:28.274Z,9.18
2022-09-24T01:08:56.844Z,9.85
2022-09-24T01:11:35.773Z,9.63
2022-09-24T01:14:20.551Z,9.90
2022-09-24T01:16:57.010Z,8.85
2022-09-24T01:19:35.468Z,10.25
2022-09-24T01:22:11.590Z,8.45
2022-09-24T01:24:55.617Z,9.15
2022-09-24T01:27:26.056Z,8.95
2022-09-24T01:30:05.088Z,9.50
2022-09-24T01:32:43.722Z,9.55
2022-09-24T01:35:22.017Z,9.48
2022-09-24T01:38:01.713Z,10.02
2022-09-24T01:40:30.368Z,9.75
2022-09-24T01:42:59.079Z,10.73
2022-09-24T01:45:31.876Z,10.02
2022-09-24T01:48:01.928Z,9.73
2022-09-24T01:50:32.735Z,9.52
2022-09-24T01:53:11.405Z,10.25
2022-09-24T01:55:47.526Z,10.73
2022-09-24T01:58:23.663Z,10.35
2022-09-24T02:00:57.661Z,9.23
2022-09-24T02:03:29.919Z,9.38
2022-09-24T02:06:22.658Z,10.63
2022-09-24T02:08:49.335Z,8.70
2022-09-24T02:11:20.330Z,8.85
2022-09-24T02:13:53.018Z,8.77
2022-09-24T02:16:23.664Z,8.75
2022-09-24T02:18:55.083Z,8.50
2022-09-24T02:21:23.714Z,9.32
2022-09-24T02:24:24.571Z,10.15
2022-09-24T02:26:51.428Z,9.30
2022-09-24T02:29:20.819Z,9.65
2022-09-24T02:31:52.654Z,9.43
2022-09-24T02:34:25.533Z,10.63
2022-09-24T02:36:59.472Z,10.10
2022-09-24T02:39:26.890Z,10.05
2022-09-24T02:41:54.792Z,9.23
2022-09-24T02:44:22.314Z,10.57
2022-09-24T02:46:50.385Z,9.55
2022-09-24T02:49:17.642Z,10.30
2022-09-24T02:51:44.851Z,10.75
2022-09-24T02:54:11.680Z,10.50
2022-09-24T02:56:38.963Z,10.75
2022-09-24T02:59:06.684Z,11.15
2022-09-24T03:01:34.444Z,10.68
2022-09-24T03:04:02.038Z,10.90
2022-09-24T03:06:30.366Z,11.30
2022-09-24T03:08:57.644Z,9.98
2022-09-24T03:11:24.722Z,8.98
2022-09-24T03:13:51.812Z,10.30
2022-09-24T03:16:20.150Z,10.70
2022-09-24T03:18:47.912Z,10.10
2022-09-24T03:21:17.177Z,11.10
2022-09-24T03:23:43.979Z,11.25
2022-09-24T03:26:11.065Z,10.95
2022-09-24T03:28:37.701Z,11.48
2022-09-24T03:31:04.821Z,10.82
2022-09-24T03:33:38.782Z,11.30
2022-09-24T03:36:12.587Z,13.02
2022-09-24T03:38:40.604Z,11.90
2022-09-24T03:41:09.118Z,12.27
2022-09-24T03:43:37.033Z,10.93
2022-09-24T03:46:06.785Z,12.02
2022-09-24T03:48:38.507Z,11.60
2022-09-24T03:51:07.271Z,10.38
2022-09-24T03:53:34.268Z,11.88
2022-09-24T03:56:02.470Z,13.07
2022-09-24T03:58:31.707Z,12.55
2022-09-24T04:00:58.762Z,11.48
2022-09-24T04:03:25.456Z,12.48
2022-09-24T04:05:52.059Z,13.50
2022-09-24T04:08:20.396Z,13.15
2022-09-24T04:10:48.770Z,12.48
2022-09-24T04:13:16.423Z,13.00
2022-09-24T04:15:45.740Z,12.55
2022-09-24T04:18:12.638Z,11.73
2022-09-24T04:20:39.779Z,12.13
2022-09-24T04:23:06.541Z,11.98
2022-09-24T04:25:33.888Z,11.88
2022-09-24T04:28:03.674Z,12.73
2022-09-24T04:30:31.444Z,11.57
2022-09-24T04:33:00.924Z,11.27
2022-09-24T04:35:29.940Z,11.63
2022-09-24T04:37:57.548Z,12.43
2022-09-24T04:40:24.217Z,12.30
2022-09-24T04:42:51.117Z,12.35
2022-09-24T04:45:21.062Z,12.55
2022-09-24T04:47:57.081Z,14.27
2022-09-24T04:50:25.679Z,13.70
2022-09-24T04:52:53.616Z,13.60
2022-09-24T04:55:23.191Z,14.35
2022-09-24T05:00:20.715Z,13.43
2022-09-24T05:02:47.794Z,13.98
2022-09-24T05:05:14.879Z,14.50
2022-09-24T05:07:42.650Z,14.05
2022-09-24T05:10:09.489Z,14.50
2022-09-24T05:12:36.607Z,14.75
2022-09-24T05:15:04.122Z,14.30
2022-09-24T05:17:30.805Z,16.15
2022-09-24T05:19:59.470Z,15.63
2022-09-24T05:22:30.096Z,16.23
2022-09-24T05:24:56.828Z,16.45
2022-09-24T05:27:24.295Z,15.40
2022-09-24T05:29:51.020Z,17.05
2022-09-24T05:32:19.854Z,17.25
2022-09-24T05:34:47.593Z,17.88
2022-09-24T05:37:15.292Z,17.05
2022-09-24T05:39:42.322Z,19.40
2022-09-24T05:42:15.630Z,19.98
2022-09-24T05:44:48.631Z,19.13
2022-09-24T05:47:18.777Z,18.92
2022-09-24T05:49:45.326Z,20.10
2022-09-24T05:52:12.036Z,19.48
2022-09-24T05:54:38.645Z,20.75
2022-09-24T05:57:05.431Z,20.08
2022-09-24T05:59:32.282Z,20.75
2022-09-24T06:01:58.942Z,20.58
2022-09-24T06:04:25.648Z,21.35
2022-09-24T06:06:52.394Z,23.27
2022-09-24T06:09:19.009Z,22.52
2022-09-24T06:11:46.555Z,23.15
2022-09-24T06:14:13.276Z,22.13
2022-09-24T06:16:39.902Z,23.27
2022-09-24T06:19:06.832Z,22.23
2022-09-24T06:21:33.506Z,23.85
2022-09-24T06:24:00.170Z,25.92
2022-09-24T06:26:28.271Z,25.25
2022-09-24T06:28:55.065Z,26.30
2022-09-24T06:31:22.304Z,25.75
2022-09-24T06:33:49.148Z,24.20
2022-09-24T06:36:15.728Z,25.58
2022-09-24T06:38:42.375Z,27.27
2022-09-24T06:41:09.596Z,27.10
2022-09-24T06:43:36.298Z,26.80
2022-09-24T06:46:04.853Z,29.25
2022-09-24T06:48:32.211Z,27.90
2022-09-24T06:50:59.643Z,27.23
2022-09-24T06:53:26.639Z,29.15
2022-09-24T06:55:57.158Z,28.55
2022-09-24T06:58:24.568Z,29.98
2022-09-24T07:00:59.266Z,29.98
2022-09-24T07:03:28.337Z,30.05
2022-09-24T07:05:55.754Z,29.55
2022-09-24T07:08:22.700Z,28.75
2022-09-24T07:10:49.825Z,29.67
2022-09-24T07:13:16.988Z,28.17
2022-09-24T07:15:44.585Z,28.90
2022-09-24T07:18:12.652Z,29.98
2022-09-24T07:20:40.021Z,30.80
2022-09-24T07:23:08.678Z,30.98
2022-09-24T07:25:36.640Z,30.63
2022-09-24T07:28:06.036Z,32.67
2022-09-24T07:30:34.069Z,33.50
2022-09-24T07:33:00.790Z,31.75
2022-09-24T07:35:28.786Z,34.58
2022-09-24T07:38:04.706Z,34.72
2022-09-24T07:40:32.413Z,33.75
2022-09-24T07:43:00.071Z,34.08
2022-09-24T07:45:29.099Z,34.97
2022-09-24T07:48:04.924Z,35.65
2022-09-24T07:50:39.395Z,33.55
2022-09-24T07:53:06.644Z,35.78
2022-09-24T07:55:39.428Z,36.08
2022-09-24T07:58:08.991Z,34.83
2022-09-24T08:00:35.655Z,33.85
2022-09-24T08:03:03.494Z,36.15
2022-09-24T08:05:30.120Z,36.67
2022-09-24T08:07:57.865Z,38.55
2022-09-24T08:10:26.376Z,39.00
2022-09-24T08:12:53.893Z,40.05
2022-09-24T08:15:22.727Z,41.53
2022-09-24T08:17:49.944Z,42.45
2022-09-24T08:20:17.208Z,40.38
2022-09-24T08:22:43.800Z,42.70
2022-09-24T08:25:10.344Z,42.70
2022-09-24T08:27:37.539Z,41.78
2022-09-24T08:30:05.634Z,39.97
2022-09-24T08:32:32.691Z,41.33
2022-09-24T08:34:59.434Z,41.47
2022-09-24T08:37:27.816Z,42.47
2022-09-24T08:39:54.556Z,42.88
2022-09-24T08:42:43.870Z,42.90
2022-09-24T08:45:29.920Z,42.58
2022-09-24T08:48:06.626Z,42.03
2022-09-24T08:50:39.509Z,40.97
2022-09-24T08:53:12.072Z,42.47
2022-09-24T08:55:43.283Z,40.10
2022-09-24T08:58:25.367Z,45.65
2022-09-24T09:01:25.760Z,44.63
2022-09-24T09:04:25.612Z,43.03
2022-09-24T09:07:40.017Z,42.90
2022-09-24T09:10:16.789Z,45.30
2022-09-24T09:12:53.976Z,44.50
2022-09-24T09:15:35.549Z,44.67
2022-09-24T09:18:16.869Z,44.63
2022-09-24T09:20:45.604Z,43.22
2022-09-24T09:23:17.270Z,43.55
2022-09-24T09:25:56.926Z,43.75
2022-09-24T09:28:26.501Z,43.33
2022-09-24T09:33:33.074Z,38.80
2022-09-24T09:36:09.070Z,38.67
2022-09-24T09:38:42.341Z,40.20
2022-09-24T09:41:40.394Z,39.33
2022-09-24T09:44:31.268Z,39.30
2022-09-24T09:47:11.552Z,39.60
2022-09-24T09:49:40.291Z,36.65
2022-09-24T09:52:21.046Z,37.80
2022-09-24T09:54:48.689Z,39.28
2022-09-24T09:57:23.997Z,37.63
2022-09-24T09:59:54.226Z,37.85
2022-09-24T10:02:33.845Z,36.67
2022-09-24T10:05:05.550Z,37.65
2022-09-24T10:07:32.714Z,34.85
2022-09-24T10:10:24.581Z,35.38
2022-09-24T10:13:12.624Z,35.63
2022-09-24T10:15:51.087Z,33.80
2022-09-24T10:18:30.792Z,35.35
2022-09-24T10:20:58.947Z,33.75
2022-09-24T10:23:47.381Z,33.03
2022-09-24T10:26:15.427Z,31.60
2022-09-24T10:29:10.797Z,31.17
2022-09-24T10:31:42.142Z,30.17
2022-09-24T10:34:23.644Z,31.63
2022-09-24T10:36:53.933Z,28.05
2022-09-24T10:39:22.703Z,30.02
2022-09-24T10:41:54.425Z,30.10
2022-09-24T10:44:22.150Z,28.50
2022-09-24T10:47:17.017Z,29.92
2022-09-24T10:50:25.261Z,29.73
2022-09-24T10:53:06.712Z,29.63
2022-09-24T10:55:37.269Z,27.58
2022-09-24T10:58:28.377Z,26.08
2022-09-24T11:01:19.264Z,26.67
2022-09-24T11:04:01.207Z,27.40
2022-09-24T11:07:07.928Z,26.25
2022-09-24T11:09:42.478Z,27.52
2022-09-24T11:12:24.300Z,26.77
2022-09-24T11:15:14.262Z,25.13
2022-09-24T11:18:11.416Z,26.55
2022-09-24T11:20:43.996Z,27.38
2022-09-24T11:23:19.666Z,25.58
2022-09-24T11:26:07.904Z,25.15
2022-09-24T11:28:37.411Z,24.27
2022-09-24T11:34:04.953Z,26.08
2022-09-24T11:36:40.764Z,26.05
2022-09-24T11:39:31.886Z,27.23
2022-09-24T11:42:04.543Z,26.50
2022-09-24T11:44:56.016Z,28.83
2022-09-24T11:47:37.995Z,28.45
2022-09-24T11:50:29.313Z,27.55
2022-09-24T11:53:17.137Z,29.83
2022-09-24T11:55:51.757Z,26.45
2022-09-24T11:58:34.370Z,26.25
2022-09-24T12:01:09.951Z,25.52
2022-09-24T12:04:18.299Z,24.88
2022-09-24T12:06:52.318Z,24.27
2022-09-24T12:09:35.954Z,27.00
2022-09-24T12:12:43.314Z,27.65
2022-09-24T12:15:18.533Z,29.08
2022-09-24T12:18:11.363Z,29.75
2022-09-24T12:20:50.214Z,28.77
2022-09-24T12:23:20.798Z,29.67
2022-09-24T12:25:53.332Z,29.40
2022-09-24T12:28:40.481Z,28.92
2022-09-24T12:31:44.381Z,29.55
2022-09-24T12:34:22.965Z,28.25
2022-09-24T12:37:02.572Z,28.13
2022-09-24T12:39:37.250Z,28.55
2022-09-24T12:42:08.111Z,27.73
2022-09-24T12:44:54.445Z,26.63
2022-09-24T12:47:27.923Z,24.17
2022-09-24T12:49:58.461Z,19.35
2022-09-24T12:52:32.359Z,16.23
2022-09-24T12:55:02.330Z,14.77
2022-09-24T12:57:39.701Z,14.95
2022-09-24T13:00:32.053Z,14.07
2022-09-24T13:02:59.970Z,13.65
2022-09-24T13:05:28.711Z,14.02
2022-09-24T13:07:55.277Z,14.50
2022-09-24T13:10:25.570Z,13.75
2022-09-24T13:12:52.915Z,13.30
2022-09-24T13:15:32.570Z,12.85
2022-09-24T13:18:11.376Z,13.55
2022-09-24T13:20:40.497Z,13.25
2022-09-24T13:23:14.419Z,12.55
2022-09-24T13:25:41.680Z,13.00
2022-09-24T13:28:29.252Z,12.25
2022-09-24T13:31:22.935Z,12.00
2022-09-24T13:33:53.186Z,12.27
2022-09-24T13:36:42.673Z,12.55
2022-09-24T13:42:21.614Z,12.50
2022-09-24T13:44:55.511Z,13.20
2022-09-24T13:47:22.104Z,12.70
2022-09-24T13:49:51.804Z,13.38
2022-09-24T13:52:33.837Z,12.48
2022-09-24T13:55:08.819Z,13.93
2022-09-24T13:57:44.560Z,12.73
2022-09-24T14:00:11.136Z,12.63
2022-09-24T14:02:38.459Z,12.75
2022-09-24T14:05:14.614Z,13.25
2022-09-24T14:07:41.375Z,12.95
2022-09-24T14:10:14.558Z,12.43
2022-09-24T14:12:41.172Z,14.57
2022-09-24T14:15:17.808Z,13.48
2022-09-24T14:17:58.278Z,16.48
2022-09-24T14:20:33.950Z,14.25
2022-09-24T14:23:01.712Z,13.93
2022-09-24T14:25:36.524Z,14.05
2022-09-24T14:28:04.904Z,13.23
2022-09-24T14:30:34.632Z,13.63
2022-09-24T14:33:11.908Z,13.23
2022-09-24T14:35:39.824Z,14.48
2022-09-24T14:42:26.474Z,13.63
2022-09-24T14:49:18.625Z,13.23
2022-09-24T14:51:59.584Z,13.50
2022-09-24T14:54:42.985Z,14.40
2022-09-24T14:57:18.604Z,13.88
2022-09-24T14:59:46.679Z,13.27
2022-09-24T15:02:29.682Z,12.95
2022-09-24T15:05:06.418Z,13.85
2022-09-24T15:07:34.828Z,12.82
2022-09-24T15:10:04.615Z,13.05
2022-09-24T15:12:40.635Z,13.10
2022-09-24T15:15:24.838Z,13.05
2022-09-24T15:17:51.439Z,13.82
2022-09-24T15:20:18.302Z,12.93
2022-09-24T15:22:46.924Z,12.18
2022-09-24T15:25:14.574Z,12.57
2022-09-24T15:27:42.910Z,12.75
2022-09-24T15:30:18.529Z,11.90
2022-09-24T15:32:45.243Z,11.32
2022-09-24T15:35:15.033Z,13.23
2022-09-24T15:37:41.901Z,11.43
2022-09-24T15:40:25.967Z,12.60
2022-09-24T15:42:52.891Z,12.80
2022-09-24T15:45:22.042Z,12.43
2022-09-24T15:47:49.983Z,11.30
2022-09-24T15:50:17.255Z,12.02
2022-09-24T15:52:48.711Z,12.30
2022-09-24T15:55:17.993Z,11.18
2022-09-24T15:57:46.690Z,11.95
2022-09-24T16:00:22.396Z,12.18
2022-09-24T16:02:52.240Z,11.35
2022-09-24T16:05:19.539Z,11.10
2022-09-24T16:07:46.189Z,10.82
2022-09-24T16:10:14.353Z,10.65
2022-09-24T16:12:42.001Z,11.45
2022-09-24T16:15:12.789Z,12.10
2022-09-24T16:17:39.379Z,12.52
2022-09-24T16:20:07.242Z,11.98
2022-09-24T16:22:33.806Z,13.35
2022-09-24T16:25:00.346Z,11.75
2022-09-24T16:27:26.930Z,12.13
2022-09-24T16:29:53.493Z,11.10
2022-09-24T16:32:20.115Z,11.05
2022-09-24T16:34:46.695Z,10.75
2022-09-24T16:37:14.555Z,10.32
2022-09-24T16:39:41.118Z,10.52
2022-09-24T16:42:08.185Z,9.50
2022-09-24T16:44:34.873Z,9.85
2022-09-24T16:47:01.673Z,10.60
2022-09-24T16:49:28.346Z,10.32
2022-09-24T16:51:55.858Z,11.23
2022-09-24T16:54:23.074Z,10.13
2022-09-24T16:56:52.058Z,10.00
2022-09-24T16:59:19.342Z,8.75
2022-09-24T17:01:46.029Z,9.10
2022-09-24T17:04:12.705Z,9.18
2022-09-24T17:06:39.941Z,10.20
2022-09-24T17:09:25.909Z,9.98
2022-09-24T17:11:52.507Z,9.20
2022-09-24T17:14:19.198Z,9.77
2022-09-24T17:16:45.901Z,10.05
2022-09-24T17:19:13.102Z,9.45
2022-09-24T17:21:42.315Z,9.48
2022-09-24T17:24:09.882Z,9.93
2022-09-24T17:26:37.537Z,9.88
2022-09-24T17:29:04.393Z,9.93
2022-09-24T17:31:31.150Z,10.32
2022-09-24T17:34:07.290Z,9.95
2022-09-24T17:36:35.026Z,9.98
2022-09-24T17:39:02.029Z,11.23
2022-09-24T17:41:30.199Z,10.00
2022-09-24T17:43:58.611Z,9.68
2022-09-24T17:46:27.669Z,10.52
2022-09-24T17:48:55.877Z,8.98
2022-09-24T17:51:32.443Z,9.00
2022-09-24T17:54:01.189Z,9.05
2022-09-24T17:56:29.568Z,9.10
2022-09-24T17:58:56.411Z,9.00
2022-09-24T18:01:25.812Z,9.10
2022-09-24T18:03:54.280Z,9.30
2022-09-24T18:06:21.695Z,9.35
2022-09-24T18:08:48.254Z,9.63
2022-09-24T18:11:17.599Z,10.15
2022-09-24T18:13:44.875Z,9.73
2022-09-24T18:16:16.749Z,10.30
2022-09-24T18:18:44.194Z,11.07
2022-09-24T18:21:13.024Z,10.05
2022-09-24T18:23:40.783Z,10.75
2022-09-24T18:26:10.518Z,10.98
2022-09-24T18:28:58.680Z,11.73
2022-09-24T18:31:28.915Z,10.80
2022-09-24T18:33:58.324Z,10.75
2022-09-24T18:36:28.346Z,11.77
2022-09-24T18:38:55.942Z,11.60
2022-09-24T18:41:25.923Z,13.68
2022-09-24T18:43:53.987Z,15.32
2022-09-24T18:46:22.677Z,15.30
2022-09-24T18:48:52.178Z,15.95
2022-09-24T18:51:31.878Z,13.38
2022-09-24T18:54:01.341Z,12.80
2022-09-24T18:56:27.857Z,13.07
2022-09-24T18:58:59.094Z,13.00
2022-09-24T19:01:26.898Z,13.13
2022-09-24T19:03:55.097Z,13.95
2022-09-24T19:06:22.220Z,12.73
2022-09-24T19:08:49.104Z,11.93
2022-09-24T19:11:17.336Z,11.40
2022-09-24T19:13:49.617Z,12.68
2022-09-24T19:16:17.739Z,11.18
2022-09-24T19:18:44.656Z,12.60
2022-09-24T19:21:14.115Z,13.50
2022-09-24T19:23:47.639Z,13.90
2022-09-24T19:26:26.406Z,15.15
2022-09-24T19:28:53.878Z,14.13
2022-09-24T19:31:31.982Z,14.90
2022-09-24T19:34:02.867Z,16.00
2022-09-24T19:36:29.797Z,15.23
2022-09-24T19:38:56.374Z,14.15
2022-09-24T19:41:26.294Z,14.27
2022-09-24T19:43:54.684Z,13.43
2022-09-24T19:46:24.322Z,12.90
2022-09-24T19:48:51.627Z,13.32
2022-09-24T19:51:21.143Z,16.13
2022-09-24T19:56:16.361Z,14.45
2022-09-24T19:58:47.039Z,13.93
2022-09-24T20:01:17.400Z,13.27
2022-09-24T20:03:44.659Z,12.82
2022-09-24T20:06:13.752Z,12.10
2022-09-24T20:08:40.791Z,13.93
2022-09-24T20:11:12.146Z,13.43
2022-09-24T20:13:40.495Z,13.95
2022-09-24T20:16:07.585Z,14.50
2022-09-24T20:18:34.649Z,13.40
2022-09-24T20:21:05.796Z,14.15
2022-09-24T20:23:32.461Z,13.45
2022-09-24T20:26:17.623Z,14.02
2022-09-24T20:28:44.322Z,13.27
2022-09-24T20:31:12.926Z,13.73
2022-09-24T20:33:42.351Z,14.07
2022-09-24T20:36:16.049Z,14.35
2022-09-24T20:38:46.398Z,14.73
2022-09-24T20:41:16.503Z,14.82
2022-09-24T20:43:44.287Z,14.75
2022-09-24T20:46:24.042Z,14.43
2022-09-24T20:48:58.205Z,14.90
2022-09-24T20:51:26.262Z,17.52
2022-09-24T20:53:53.774Z,16.05
2022-09-24T20:56:21.406Z,16.73
2022-09-24T20:58:52.933Z,16.38
2022-09-24T21:01:20.834Z,15.80
2022-09-24T21:03:50.327Z,16.83
2022-09-24T21:08:45.918Z,18.42
2022-09-24T21:11:19.002Z,17.63
2022-09-24T21:13:51.518Z,17.05
2022-09-24T21:16:26.756Z,17.67
2022-09-24T21:18:56.616Z,17.83
2022-09-24T21:21:26.227Z,17.23
2022-09-24T21:26:30.256Z,16.23
2022-09-24T21:29:09.906Z,17.50
2022-09-24T21:31:39.042Z,18.45
2022-09-24T21:34:07.196Z,19.83
2022-09-24T21:36:43.757Z,21.05
2022-09-24T21:39:19.987Z,22.35
2022-09-24T21:41:51.367Z,22.83
2022-09-24T21:44:19.167Z,24.25
2022-09-24T21:46:46.744Z,25.20
2022-09-24T21:49:13.506Z,24.95
2022-09-24T21:51:41.092Z,25.35
2022-09-24T21:54:12.321Z,23.77
2022-09-24T21:56:38.908Z,22.48
2022-09-24T21:59:25.457Z,23.70
2022-09-24T22:01:52.281Z,24.92
2022-09-24T22:04:19.382Z,23.38
2022-09-24T22:06:47.002Z,23.27
2022-09-24T22:09:13.744Z,23.65
2022-09-24T22:11:40.337Z,24.08
2022-09-24T22:14:07.032Z,23.52
2022-09-24T22:16:36.082Z,23.30
2022-09-24T22:19:05.084Z,22.67
2022-09-24T22:21:32.147Z,23.33
2022-09-24T22:23:59.218Z,22.17
2022-09-24T22:26:26.597Z,22.48
2022-09-24T22:28:53.964Z,22.10
2022-09-24T22:31:21.224Z,21.30
2022-09-24T22:34:06.719Z,22.48
2022-09-24T22:36:35.270Z,22.63
2022-09-24T22:39:03.883Z,21.48
2022-09-24T22:41:31.007Z,21.80
2022-09-24T22:43:58.362Z,22.77
2022-09-24T22:46:26.923Z,22.08
2022-09-24T22:48:55.399Z,22.42
2022-09-24T22:51:23.134Z,24.15
2022-09-24T22:53:50.089Z,23.75
2022-09-24T22:56:19.346Z,23.60
2022-09-24T22:58:51.395Z,23.17
2022-09-24T23:01:22.457Z,24.77
2022-09-24T23:03:54.062Z,24.63
2022-09-24T23:06:21.926Z,22.70
2022-09-24T23:08:49.469Z,22.95
2022-09-24T23:11:36.291Z,23.77
2022-09-24T23:14:05.883Z,24.58
2022-09-24T23:19:05.712Z,24.73
2022-09-24T23:21:33.212Z,23.90
2022-09-24T23:24:14.732Z,24.23
2022-09-24T23:26:41.323Z,23.27
2022-09-24T23:29:08.758Z,21.65
2022-09-24T23:31:36.994Z,22.10
2022-09-24T23:34:06.706Z,21.45
2022-09-24T23:36:34.642Z,19.65
2022-09-24T23:39:02.231Z,18.58
2022-09-24T23:41:32.107Z,17.75
2022-09-24T23:43:59.795Z,18.10
2022-09-24T23:46:27.444Z,17.13
2022-09-24T23:48:54.770Z,18.30
2022-09-24T23:51:21.487Z,18.52
2022-09-24T23:53:48.374Z,17.30
2022-09-24T23:56:14.958Z,17.08
2022-09-24T23:58:42.082Z,16.90
